createdAt,value
2022-11-23T00:00:38.118Z,4.93
2022-11-23T00:03:05.224Z,5.83
2022-11-23T00:05:32.431Z,6.00
2022-11-23T00:07:59.513Z,4.73
2022-11-23T00:10:26.596Z,5.87
2022-11-23T00:12:53.685Z,5.30
2022-11-23T00:15:20.742Z,5.93
2022-11-23T00:17:48.503Z,5.77
2022-11-23T00:20:15.619Z,6.00
2022-11-23T00:22:42.685Z,6.00
2022-11-23T00:25:09.916Z,6.07
2022-11-23T00:27:37.032Z,5.87
2022-11-23T00:30:04.655Z,6.10
2022-11-23T00:32:31.716Z,6.37
2022-11-23T00:34:58.741Z,5.60
2022-11-23T00:37:25.841Z,6.33
2022-11-23T00:39:52.937Z,5.70
2022-11-23T00:42:20.048Z,5.90
2022-11-23T00:44:47.113Z,5.37
2022-11-23T00:47:14.179Z,5.40
2022-11-23T00:49:41.266Z,6.10
2022-11-23T00:52:08.296Z,5.83
2022-11-23T00:54:35.368Z,6.03
2022-11-23T00:57:02.526Z,5.90
2022-11-23T00:59:30.080Z,6.00
2022-11-23T01:01:57.420Z,5.57
2022-11-23T01:04:24.577Z,5.70
2022-11-23T01:06:56.040Z,6.30
2022-11-23T01:09:26.446Z,5.33
2022-11-23T01:11:53.893Z,5.60
2022-11-23T01:14:21.378Z,5.90
2022-11-23T01:16:48.432Z,5.80
2022-11-23T01:19:18.386Z,5.80
2022-11-23T01:21:45.424Z,5.87
2022-11-23T01:24:14.126Z,6.63
2022-11-23T01:26:41.531Z,5.77
2022-11-23T01:29:08.972Z,5.57
2022-11-23T01:31:36.083Z,5.87
2022-11-23T01:34:04.172Z,5.97
2022-11-23T01:36:34.885Z,5.90
2022-11-23T01:39:02.639Z,5.83
2022-11-23T01:41:31.839Z,6.17
2022-11-23T01:43:59.109Z,5.67
2022-11-23T01:46:26.163Z,6.60
2022-11-23T01:48:57.415Z,5.33
2022-11-23T01:51:24.449Z,7.03
2022-11-23T01:53:54.854Z,6.37
2022-11-23T01:56:26.151Z,5.87
2022-11-23T01:58:54.334Z,5.73
2022-11-23T02:01:21.508Z,6.37
2022-11-23T02:03:49.679Z,5.83
2022-11-23T02:06:20.712Z,5.93
2022-11-23T02:08:48.664Z,6.10
2022-11-23T02:11:16.430Z,6.27
2022-11-23T02:13:44.994Z,5.70
2022-11-23T02:16:12.397Z,6.07
2022-11-23T02:18:40.991Z,6.27
2022-11-23T02:21:08.029Z,6.27
2022-11-23T02:23:38.061Z,5.93
2022-11-23T02:26:08.023Z,6.37
2022-11-23T02:28:40.625Z,6.57
2022-11-23T02:31:07.752Z,6.73
2022-11-23T02:33:34.807Z,6.53
2022-11-23T02:36:02.903Z,5.50
2022-11-23T02:38:34.003Z,6.17
2022-11-23T02:41:01.109Z,5.97
2022-11-23T02:43:28.257Z,6.30
2022-11-23T02:45:59.923Z,6.00
2022-11-23T02:48:26.987Z,5.57
2022-11-23T02:50:54.088Z,5.93
2022-11-23T02:53:21.192Z,5.93
2022-11-23T02:55:48.466Z,5.47
2022-11-23T02:58:15.579Z,5.87
2022-11-23T03:00:42.750Z,6.30
2022-11-23T03:03:09.954Z,5.57
2022-11-23T03:05:37.058Z,5.73
2022-11-23T03:08:04.165Z,6.03
2022-11-23T03:10:31.204Z,6.27
2022-11-23T03:12:58.359Z,5.53
2022-11-23T03:15:25.482Z,6.50
2022-11-23T03:17:52.612Z,6.00
2022-11-23T03:20:19.793Z,6.57
2022-11-23T03:22:47.200Z,5.70
2022-11-23T03:25:14.313Z,4.80
2022-11-23T03:27:41.390Z,5.40
2022-11-23T03:30:09.101Z,5.33
2022-11-23T03:32:36.673Z,5.77
2022-11-23T03:35:04.272Z,6.23
2022-11-23T03:37:31.332Z,6.83
2022-11-23T03:39:58.382Z,5.80
2022-11-23T03:42:25.477Z,5.27
2022-11-23T03:44:52.554Z,5.80
2022-11-23T03:47:19.742Z,5.63
2022-11-23T03:49:46.862Z,5.43
2022-11-23T03:52:13.920Z,5.20
2022-11-23T03:54:40.969Z,4.93
2022-11-23T03:57:08.028Z,4.80
2022-11-23T03:59:35.085Z,5.60
2022-11-23T04:02:02.184Z,5.30
2022-11-23T04:04:29.266Z,5.00
2022-11-23T04:06:56.323Z,6.07
2022-11-23T04:09:23.442Z,5.60
2022-11-23T04:11:50.503Z,5.23
2022-11-23T04:14:17.652Z,5.27
2022-11-23T04:16:44.685Z,5.20
2022-11-23T04:19:11.729Z,5.93
2022-11-23T04:21:38.801Z,5.17
2022-11-23T04:24:06.080Z,5.47
2022-11-23T04:26:33.179Z,4.90
2022-11-23T04:29:00.230Z,5.83
2022-11-23T04:31:27.301Z,5.30
2022-11-23T04:33:55.908Z,5.77
2022-11-23T04:36:22.991Z,5.30
2022-11-23T04:38:50.084Z,5.20
2022-11-23T04:41:17.177Z,5.23
2022-11-23T04:43:44.280Z,4.93
2022-11-23T04:46:14.202Z,5.80
2022-11-23T04:48:41.239Z,5.23
2022-11-23T04:51:08.337Z,5.47
2022-11-23T04:53:35.388Z,5.53
2022-11-23T04:56:02.460Z,5.27
2022-11-23T04:58:34.211Z,5.13
2022-11-23T05:01:01.774Z,6.00
2022-11-23T05:03:28.906Z,5.93
2022-11-23T05:05:59.152Z,5.50
2022-11-23T05:08:26.230Z,6.30
2022-11-23T05:10:53.337Z,5.33
2022-11-23T05:13:20.596Z,5.43
2022-11-23T05:15:47.662Z,5.50
2022-11-23T05:18:14.839Z,4.87
2022-11-23T05:20:41.905Z,4.97
2022-11-23T05:23:09.056Z,5.10
2022-11-23T05:25:36.134Z,4.90
2022-11-23T05:28:16.569Z,4.73
2022-11-23T05:30:50.331Z,6.27
2022-11-23T05:33:17.389Z,5.27
2022-11-23T05:35:44.480Z,5.37
2022-11-23T05:38:11.582Z,5.37
2022-11-23T05:40:38.669Z,5.90
2022-11-23T05:43:05.827Z,5.90
2022-11-23T05:45:32.894Z,5.90
2022-11-23T05:47:59.999Z,5.70
2022-11-23T05:50:28.050Z,5.10
2022-11-23T05:52:56.715Z,5.33
2022-11-23T05:55:23.846Z,5.90
2022-11-23T05:57:50.926Z,5.67
2022-11-23T06:00:18.129Z,5.43
2022-11-23T06:02:45.302Z,5.60
2022-11-23T06:05:12.583Z,5.67
2022-11-23T06:07:39.794Z,5.87
2022-11-23T06:10:07.304Z,5.83
2022-11-23T06:12:34.403Z,5.80
2022-11-23T06:15:01.515Z,5.77
2022-11-23T06:17:28.687Z,6.10
2022-11-23T06:19:55.857Z,5.70
2022-11-23T06:22:22.890Z,6.30
2022-11-23T06:24:49.971Z,5.83
2022-11-23T06:27:18.308Z,5.33
2022-11-23T06:29:46.915Z,5.37
2022-11-23T06:32:14.321Z,5.57
2022-11-23T06:34:41.424Z,5.87
2022-11-23T06:37:08.486Z,6.30
2022-11-23T06:39:35.704Z,6.60
2022-11-23T06:42:31.015Z,6.57
2022-11-23T06:44:50.120Z,6.30
2022-11-23T06:47:19.840Z,6.70
2022-11-23T06:49:49.049Z,5.43
2022-11-23T06:52:16.156Z,7.00
2022-11-23T06:54:43.223Z,6.67
2022-11-23T06:57:10.591Z,6.60
2022-11-23T06:59:40.670Z,6.20
2022-11-23T07:02:11.588Z,6.20
2022-11-23T07:04:38.763Z,6.07
2022-11-23T07:07:05.889Z,6.87
2022-11-23T07:09:33.274Z,6.30
2022-11-23T07:12:00.443Z,6.43
2022-11-23T07:14:27.494Z,6.60
2022-11-23T07:16:54.606Z,7.13
2022-11-23T07:19:21.635Z,6.00
2022-11-23T07:21:48.692Z,6.03
2022-11-23T07:24:15.759Z,5.90
2022-11-23T07:26:42.940Z,6.60
2022-11-23T07:29:10.575Z,6.07
2022-11-23T07:31:37.643Z,6.13
2022-11-23T07:34:05.133Z,5.80
2022-11-23T07:36:32.280Z,6.43
2022-11-23T07:38:59.317Z,6.00
2022-11-23T07:41:27.506Z,5.97
2022-11-23T07:43:54.617Z,6.50
2022-11-23T07:46:22.144Z,6.40
2022-11-23T07:48:49.393Z,6.30
2022-11-23T07:51:16.821Z,6.93
2022-11-23T07:53:43.900Z,5.77
2022-11-23T07:56:10.945Z,5.97
2022-11-23T07:58:38.005Z,6.40
2022-11-23T08:01:05.085Z,6.63
2022-11-23T08:03:32.279Z,6.23
2022-11-23T08:05:59.379Z,6.73
2022-11-23T08:08:26.463Z,6.70
2022-11-23T08:10:54.608Z,6.80
2022-11-23T08:13:22.629Z,7.03
2022-11-23T08:15:54.823Z,7.30
2022-11-23T08:18:22.776Z,6.57
2022-11-23T08:20:49.824Z,7.00
2022-11-23T08:23:16.889Z,6.93
2022-11-23T08:25:44.005Z,6.23
2022-11-23T08:28:11.631Z,6.87
2022-11-23T08:30:38.792Z,6.93
2022-11-23T08:33:06.758Z,7.30
2022-11-23T08:35:34.780Z,7.47
2022-11-23T08:38:01.847Z,7.23
2022-11-23T08:40:29.034Z,6.70
2022-11-23T08:42:56.277Z,6.20
2022-11-23T08:45:23.492Z,6.20
2022-11-23T08:47:51.111Z,6.20
2022-11-23T08:50:18.389Z,6.10
2022-11-23T08:52:45.572Z,6.70
2022-11-23T08:55:12.670Z,6.80
2022-11-23T08:57:39.802Z,6.53
2022-11-23T09:00:07.190Z,6.60
2022-11-23T09:02:34.241Z,6.57
2022-11-23T09:05:01.283Z,7.27
2022-11-23T09:07:28.375Z,6.60
2022-11-23T09:09:55.503Z,6.90
2022-11-23T09:12:22.541Z,6.13
2022-11-23T09:14:49.709Z,7.13
2022-11-23T09:17:16.733Z,7.03
2022-11-23T09:19:43.770Z,6.57
2022-11-23T09:22:10.814Z,7.13
2022-11-23T09:24:38.062Z,6.63
2022-11-23T09:27:05.286Z,6.60
2022-11-23T09:29:32.344Z,5.97
2022-11-23T09:31:59.412Z,6.77
2022-11-23T09:34:26.468Z,6.33
2022-11-23T09:36:53.520Z,7.03
2022-11-23T09:39:20.588Z,6.63
2022-11-23T09:42:05.861Z,7.20
2022-11-23T09:44:34.303Z,6.63
2022-11-23T09:47:17.912Z,6.70
2022-11-23T09:49:44.958Z,6.70
2022-11-23T09:52:16.050Z,7.30
2022-11-23T09:54:44.818Z,6.83
2022-11-23T09:57:13.952Z,6.97
2022-11-23T09:59:42.779Z,7.23
2022-11-23T10:02:18.415Z,6.97
2022-11-23T10:04:45.529Z,7.70
2022-11-23T10:07:23.213Z,7.50
2022-11-23T10:10:08.982Z,6.50
2022-11-23T10:12:48.453Z,6.80
2022-11-23T10:15:19.696Z,7.13
2022-11-23T10:17:51.006Z,7.23
2022-11-23T10:20:36.993Z,7.70
2022-11-23T10:23:08.346Z,6.90
2022-11-23T10:25:45.870Z,6.00
2022-11-23T10:28:14.219Z,6.67
2022-11-23T10:30:41.737Z,6.50
2022-11-23T10:33:11.609Z,6.57
2022-11-23T10:35:38.655Z,6.50
2022-11-23T10:38:19.188Z,6.73
2022-11-23T10:40:49.667Z,7.33
2022-11-23T10:43:19.080Z,6.90
2022-11-23T10:45:46.172Z,6.40
2022-11-23T10:48:13.254Z,6.77
2022-11-23T10:50:40.996Z,6.50
2022-11-23T10:53:28.193Z,6.90
2022-11-23T10:55:57.992Z,6.17
2022-11-23T10:58:35.303Z,7.17
2022-11-23T11:01:03.753Z,6.20
2022-11-23T11:03:33.022Z,6.67
2022-11-23T11:06:09.530Z,6.70
2022-11-23T11:08:59.565Z,6.80
2022-11-23T11:11:29.734Z,6.57
2022-11-23T11:14:16.789Z,6.23
2022-11-23T11:16:52.805Z,6.90
2022-11-23T11:19:25.854Z,6.37
2022-11-23T11:21:52.906Z,6.83
2022-11-23T11:24:44.752Z,6.20
2022-11-23T11:27:21.072Z,5.83
2022-11-23T11:29:49.494Z,5.97
2022-11-23T11:32:25.390Z,5.60
2022-11-23T11:34:58.217Z,6.83
2022-11-23T11:37:25.233Z,6.37
2022-11-23T11:39:58.279Z,6.03
2022-11-23T11:42:34.288Z,6.27
2022-11-23T11:45:03.641Z,6.23
2022-11-23T11:47:44.099Z,6.20
2022-11-23T11:50:32.078Z,6.03
2022-11-23T11:53:11.876Z,5.53
2022-11-23T11:55:56.853Z,5.77
2022-11-23T11:58:26.010Z,6.20
2022-11-23T12:01:19.325Z,5.83
2022-11-23T12:03:55.810Z,6.00
2022-11-23T12:06:27.656Z,6.03
2022-11-23T12:09:00.616Z,5.77
2022-11-23T12:11:28.460Z,5.70
2022-11-23T12:13:59.388Z,5.80
2022-11-23T12:16:44.736Z,5.73
2022-11-23T12:19:11.922Z,5.93
2022-11-23T12:21:54.183Z,5.90
2022-11-23T12:24:28.557Z,5.80
2022-11-23T12:26:55.570Z,6.00
2022-11-23T12:29:27.757Z,5.60
2022-11-23T12:32:00.081Z,5.80
2022-11-23T12:34:43.196Z,6.03
2022-11-23T12:37:10.215Z,6.13
2022-11-23T12:39:55.751Z,6.60
2022-11-23T12:42:29.549Z,6.57
2022-11-23T12:44:59.349Z,6.03
2022-11-23T12:47:46.707Z,6.17
2022-11-23T12:50:31.938Z,6.43
2022-11-23T12:53:04.962Z,6.33
2022-11-23T12:55:32.201Z,5.83
2022-11-23T12:58:00.066Z,6.90
2022-11-23T13:03:15.849Z,6.33
2022-11-23T13:06:02.134Z,6.20
2022-11-23T13:08:50.876Z,6.60
2022-11-23T13:11:41.303Z,6.77
2022-11-23T13:14:29.612Z,7.67
2022-11-23T13:17:23.412Z,7.80
2022-11-23T13:19:59.077Z,7.73
2022-11-23T13:22:29.699Z,8.33
2022-11-23T13:25:09.324Z,8.50
2022-11-23T13:27:58.492Z,8.37
2022-11-23T13:30:35.652Z,8.37
2022-11-23T13:33:25.273Z,8.53
2022-11-23T13:35:55.852Z,8.80
2022-11-23T13:38:29.478Z,8.43
2022-11-23T13:40:56.984Z,8.63
2022-11-23T13:43:27.169Z,8.83
2022-11-23T13:46:12.571Z,8.37
2022-11-23T13:48:58.205Z,9.50
2022-11-23T13:51:35.628Z,8.60
2022-11-23T13:54:04.171Z,8.30
2022-11-23T13:56:31.499Z,8.50
2022-11-23T13:58:58.535Z,8.70
2022-11-23T14:01:55.073Z,8.60
2022-11-23T14:04:23.818Z,7.87
2022-11-23T14:06:59.773Z,8.30
2022-11-23T14:09:29.723Z,8.40
2022-11-23T14:12:03.057Z,8.80
2022-11-23T14:14:36.445Z,8.57
2022-11-23T14:17:09.219Z,8.97
2022-11-23T14:19:39.640Z,9.20
2022-11-23T14:22:19.228Z,8.90
2022-11-23T14:24:57.201Z,8.23
2022-11-23T14:27:47.281Z,7.97
2022-11-23T14:30:14.825Z,8.47
2022-11-23T14:33:04.115Z,8.17
2022-11-23T14:35:37.545Z,7.87
2022-11-23T14:38:13.648Z,8.70
2022-11-23T14:40:53.697Z,8.07
2022-11-23T14:43:21.787Z,8.73
2022-11-23T14:45:49.055Z,8.27
2022-11-23T14:48:29.384Z,8.90
2022-11-23T14:50:59.219Z,9.10
2022-11-23T14:53:29.530Z,9.47
2022-11-23T14:55:57.642Z,8.73
2022-11-23T14:58:26.170Z,8.93
2022-11-23T15:00:53.799Z,8.57
2022-11-23T15:03:49.230Z,8.33
2022-11-23T15:06:10.974Z,8.53
2022-11-23T15:08:44.950Z,8.37
2022-11-23T15:11:17.462Z,8.20
2022-11-23T15:13:44.638Z,8.40
2022-11-23T15:16:15.934Z,8.83
2022-11-23T15:18:43.173Z,8.23
2022-11-23T15:21:13.003Z,8.17
2022-11-23T15:23:45.362Z,9.40
2022-11-23T15:26:48.829Z,8.57
2022-11-23T15:29:36.178Z,8.03
2022-11-23T15:32:29.354Z,8.43
2022-11-23T15:34:53.602Z,7.73
2022-11-23T15:37:20.777Z,8.40
2022-11-23T15:39:48.375Z,8.80
2022-11-23T15:42:19.083Z,8.13
2022-11-23T15:44:51.076Z,8.13
2022-11-23T15:47:27.010Z,8.37
2022-11-23T15:50:08.756Z,8.43
2022-11-23T15:52:37.419Z,8.37
2022-11-23T15:55:09.860Z,8.60
2022-11-23T15:57:37.866Z,8.50
2022-11-23T16:00:05.801Z,8.60
2022-11-23T16:02:33.252Z,8.87
2022-11-23T16:05:19.848Z,8.43
2022-11-23T16:07:51.465Z,8.50
2022-11-23T16:10:20.137Z,7.63
2022-11-23T16:12:51.614Z,9.40
2022-11-23T16:15:44.298Z,8.90
2022-11-23T16:18:14.526Z,8.53
2022-11-23T16:20:55.982Z,8.87
2022-11-23T16:23:28.118Z,9.33
2022-11-23T16:26:05.545Z,8.80
2022-11-23T16:28:37.185Z,8.50
2022-11-23T16:31:04.736Z,8.93
2022-11-23T16:33:31.976Z,8.53
2022-11-23T16:35:59.112Z,8.90
2022-11-23T16:38:26.237Z,9.10
2022-11-23T16:40:53.528Z,9.63
2022-11-23T16:43:20.751Z,8.37
2022-11-23T16:45:50.533Z,8.83
2022-11-23T16:48:20.791Z,9.10
2022-11-23T16:50:47.917Z,9.17
2022-11-23T16:53:16.060Z,8.93
2022-11-23T16:55:43.934Z,8.43
2022-11-23T16:58:14.892Z,8.47
2022-11-23T17:00:42.109Z,9.80
2022-11-23T17:03:13.800Z,9.17
2022-11-23T17:05:40.883Z,8.83
2022-11-23T17:08:07.987Z,9.20
2022-11-23T17:10:35.522Z,8.80
2022-11-23T17:13:08.122Z,8.43
2022-11-23T17:15:35.180Z,9.00
2022-11-23T17:18:02.231Z,8.63
2022-11-23T17:20:29.286Z,8.53
2022-11-23T17:23:00.157Z,8.80
2022-11-23T17:25:27.372Z,8.47
2022-11-23T17:27:54.419Z,8.60
2022-11-23T17:30:22.611Z,8.90
2022-11-23T17:32:50.089Z,8.80
2022-11-23T17:35:17.566Z,9.17
2022-11-23T17:37:44.729Z,9.50
2022-11-23T17:40:18.819Z,9.67
2022-11-23T17:42:46.113Z,9.77
2022-11-23T17:45:13.493Z,9.27
2022-11-23T17:47:41.569Z,8.97
2022-11-23T17:50:11.628Z,9.07
2022-11-23T17:52:42.066Z,9.93
2022-11-23T17:55:09.454Z,10.40
2022-11-23T17:57:36.507Z,10.33
2022-11-23T18:00:04.182Z,9.97
2022-11-23T18:02:31.297Z,9.80
2022-11-23T18:04:58.487Z,10.23
2022-11-23T18:07:25.642Z,10.17
2022-11-23T18:09:53.047Z,10.03
2022-11-23T18:12:21.515Z,10.17
2022-11-23T18:14:48.597Z,9.87
2022-11-23T18:17:16.385Z,9.80
2022-11-23T18:19:43.465Z,10.17
2022-11-23T18:22:10.598Z,10.40
2022-11-23T18:24:37.846Z,9.83
2022-11-23T18:27:04.990Z,9.93
2022-11-23T18:29:32.671Z,10.40
2022-11-23T18:31:59.906Z,10.30
2022-11-23T18:34:26.975Z,10.00
2022-11-23T18:36:54.106Z,10.77
2022-11-23T18:39:21.203Z,10.23
2022-11-23T18:41:48.286Z,10.73
2022-11-23T18:44:15.420Z,9.90
2022-11-23T18:46:44.831Z,10.07
2022-11-23T18:49:12.255Z,9.87
2022-11-23T18:51:39.415Z,10.43
2022-11-23T18:54:06.546Z,10.50
2022-11-23T18:56:33.591Z,10.70
2022-11-23T18:59:00.696Z,10.10
2022-11-23T19:01:27.929Z,9.97
2022-11-23T19:03:55.074Z,11.07
2022-11-23T19:06:23.415Z,10.80
2022-11-23T19:08:53.314Z,10.13
2022-11-23T19:11:21.945Z,10.27
2022-11-23T19:13:50.136Z,10.60
2022-11-23T19:16:20.870Z,10.90
2022-11-23T19:18:48.557Z,10.17
2022-11-23T19:21:17.170Z,10.37
2022-11-23T19:23:44.900Z,9.23
2022-11-23T19:26:12.025Z,9.87
2022-11-23T19:28:44.528Z,9.37
2022-11-23T19:31:12.940Z,10.13
2022-11-23T19:33:40.120Z,10.27
2022-11-23T19:36:08.231Z,9.90
2022-11-23T19:38:35.555Z,10.37
2022-11-23T19:41:02.595Z,10.17
2022-11-23T19:43:29.772Z,10.03
2022-11-23T19:46:01.079Z,9.73
2022-11-23T19:48:29.741Z,10.47
2022-11-23T19:50:57.462Z,9.27
2022-11-23T19:53:30.506Z,11.03
2022-11-23T19:56:02.436Z,10.63
2022-11-23T19:58:33.184Z,13.40
2022-11-23T20:01:08.020Z,18.03
2022-11-23T20:03:35.537Z,12.50
2022-11-23T20:06:04.079Z,11.93
2022-11-23T20:08:31.140Z,11.10
2022-11-23T20:10:58.839Z,11.63
2022-11-23T20:13:26.070Z,10.43
2022-11-23T20:15:53.266Z,9.53
2022-11-23T20:18:21.206Z,9.47
2022-11-23T20:20:49.796Z,10.50
2022-11-23T20:23:16.990Z,9.87
2022-11-23T20:25:44.142Z,9.80
2022-11-23T20:28:13.169Z,9.93
2022-11-23T20:30:40.958Z,10.13
2022-11-23T20:33:08.225Z,9.73
2022-11-23T20:35:35.348Z,10.00
2022-11-23T20:38:03.427Z,10.67
2022-11-23T20:40:30.547Z,9.87
2022-11-23T20:42:57.918Z,9.97
2022-11-23T20:45:25.602Z,9.97
2022-11-23T20:47:54.558Z,9.43
2022-11-23T20:50:26.979Z,9.53
2022-11-23T20:52:54.845Z,10.00
2022-11-23T20:55:25.213Z,9.80
2022-11-23T20:57:52.973Z,9.87
2022-11-23T21:00:21.371Z,10.27
2022-11-23T21:02:49.691Z,9.93
2022-11-23T21:05:16.989Z,10.13
2022-11-23T21:07:44.400Z,9.40
2022-11-23T21:10:31.496Z,10.00
2022-11-23T21:13:19.255Z,9.47
2022-11-23T21:15:46.528Z,9.60
2022-11-23T21:18:13.685Z,9.70
2022-11-23T21:20:43.183Z,9.67
2022-11-23T21:23:10.305Z,9.57
2022-11-23T21:25:37.428Z,10.37
2022-11-23T21:28:04.741Z,10.50
2022-11-23T21:30:31.864Z,9.83
2022-11-23T21:32:58.951Z,9.07
2022-11-23T21:35:26.338Z,9.27
2022-11-23T21:37:53.447Z,10.13
2022-11-23T21:40:20.545Z,9.60
2022-11-23T21:42:47.744Z,9.60
2022-11-23T21:45:14.879Z,9.97
2022-11-23T21:47:41.950Z,9.40
2022-11-23T21:50:09.165Z,9.57
2022-11-23T21:52:36.229Z,8.70
2022-11-23T21:55:03.317Z,8.50
2022-11-23T21:57:30.394Z,9.70
2022-11-23T21:59:57.719Z,8.40
2022-11-23T22:02:24.885Z,9.57
2022-11-23T22:04:52.069Z,9.77
2022-11-23T22:07:19.261Z,8.80
2022-11-23T22:09:46.407Z,9.37
2022-11-23T22:12:13.517Z,9.37
2022-11-23T22:14:40.686Z,8.27
2022-11-23T22:17:07.953Z,7.83
2022-11-23T22:19:35.254Z,8.07
2022-11-23T22:22:02.397Z,8.70
2022-11-23T22:24:30.092Z,8.77
2022-11-23T22:26:57.225Z,8.73
2022-11-23T22:29:24.312Z,9.23
2022-11-23T22:31:51.498Z,8.80
2022-11-23T22:34:19.314Z,9.47
2022-11-23T22:36:46.444Z,7.70
2022-11-23T22:39:13.609Z,8.83
2022-11-23T22:41:41.005Z,9.67
2022-11-23T22:44:09.776Z,9.20
2022-11-23T22:46:37.692Z,9.00
2022-11-23T22:49:05.211Z,8.43
2022-11-23T22:51:32.770Z,7.53
2022-11-23T22:54:00.557Z,8.70
2022-11-23T22:56:28.723Z,7.83
2022-11-23T22:58:56.020Z,8.13
2022-11-23T23:01:24.608Z,8.40
2022-11-23T23:03:55.696Z,8.27
2022-11-23T23:06:24.451Z,8.93
2022-11-23T23:08:58.844Z,9.93
2022-11-23T23:11:26.800Z,8.90
2022-11-23T23:13:54.489Z,9.13
2022-11-23T23:16:21.752Z,7.93
2022-11-23T23:18:49.355Z,8.40
2022-11-23T23:21:17.594Z,8.43
2022-11-23T23:23:45.915Z,8.73
2022-11-23T23:26:14.201Z,8.13
2022-11-23T23:28:41.492Z,9.00
2022-11-23T23:31:09.891Z,7.87
2022-11-23T23:33:37.402Z,8.03
2022-11-23T23:36:09.053Z,7.93
2022-11-23T23:38:37.288Z,7.93
2022-11-23T23:41:05.040Z,7.83
2022-11-23T23:43:32.150Z,7.87
2022-11-23T23:46:00.075Z,8.13
2022-11-23T23:48:31.008Z,7.43
2022-11-23T23:50:58.146Z,8.33
2022-11-23T23:53:25.328Z,8.63
2022-11-23T23:55:59.007Z,8.07
2022-11-23T23:58:26.309Z,7.97
